sensor_id;sensor_type;location;lat;lon;timestamp;P1;durP1;ratioP1;P2;durP2;ratioP2
40555;SDS011;26250;45.422;11.100;2022-11-24T07:29:28;26.45;;;23.45;;
40555;SDS011;26250;45.422;11.100;2022-11-24T07:31:55;34.55;;;23.80;;
40555;SDS011;26250;45.422;11.100;2022-11-24T07:34:30;24.00;;;21.40;;
40555;SDS011;26250;45.422;11.100;2022-11-24T07:36:57;32.03;;;20.90;;
40555;SDS011;26250;45.422;11.100;2022-11-24T07:39:24;25.92;;;19.52;;
40555;SDS011;26250;45.422;11.100;2022-11-24T07:41:51;40.47;;;19.15;;
40555;SDS011;26250;45.422;11.100;2022-11-24T07:44:18;41.30;;;24.08;;
40555;SDS011;26250;45.422;11.100;2022-11-24T07:46:45;32.38;;;22.95;;
40555;SDS011;26250;45.422;11.100;2022-11-24T12:05:26;35.50;;;30.98;;
40555;SDS011;26250;45.422;11.100;2022-11-24T12:08:06;36.63;;;30.42;;
40555;SDS011;26250;45.422;11.100;2022-11-24T12:15:49;35.25;;;29.95;;
40555;SDS011;26250;45.422;11.100;2022-11-24T12:24:47;33.90;;;28.08;;
40555;SDS011;26250;45.422;11.100;2022-11-24T12:27:32;35.05;;;30.40;;
40555;SDS011;26250;45.422;11.100;2022-11-24T12:30:16;42.40;;;31.92;;
40555;SDS011;26250;45.422;11.100;2022-11-24T12:35:45;36.85;;;30.73;;
40555;SDS011;26250;45.422;11.100;2022-11-24T12:38:38;33.60;;;30.02;;
40555;SDS011;26250;45.422;11.100;2022-11-24T12:43:57;37.28;;;30.35;;
40555;SDS011;26250;45.422;11.100;2022-11-24T12:46:31;43.60;;;33.28;;
40555;SDS011;26250;45.422;11.100;2022-11-24T12:51:48;44.65;;;33.03;;
40555;SDS011;26250;45.422;11.100;2022-11-24T12:54:26;35.72;;;30.38;;
40555;SDS011;26250;45.422;11.100;2022-11-24T12:57:13;36.45;;;29.77;;
40555;SDS011;26250;45.422;11.100;2022-11-24T13:00:00;35.28;;;29.52;;
40555;SDS011;26250;45.422;11.100;2022-11-24T13:02:54;36.97;;;31.20;;
40555;SDS011;26250;45.422;11.100;2022-11-24T13:05:43;39.90;;;31.13;;
40555;SDS011;26250;45.422;11.100;2022-11-24T13:08:34;36.33;;;29.65;;
40555;SDS011;26250;45.422;11.100;2022-11-24T13:14:00;31.92;;;28.45;;
40555;SDS011;26250;45.422;11.100;2022-11-24T13:16:32;42.65;;;30.38;;
40555;SDS011;26250;45.422;11.100;2022-11-24T13:19:07;43.80;;;29.02;;
40555;SDS011;26250;45.422;11.100;2022-11-24T13:26:47;37.70;;;28.02;;
40555;SDS011;26250;45.422;11.100;2022-11-24T13:37:18;41.38;;;29.15;;
40555;SDS011;26250;45.422;11.100;2022-11-24T13:56:18;35.47;;;28.23;;
40555;SDS011;26250;45.422;11.100;2022-11-24T13:58:56;43.42;;;30.65;;
40555;SDS011;26250;45.422;11.100;2022-11-24T14:01:26;31.58;;;27.15;;
40555;SDS011;26250;45.422;11.100;2022-11-24T14:04:03;34.22;;;27.65;;
40555;SDS011;26250;45.422;11.100;2022-11-24T14:07:02;38.30;;;30.48;;
40555;SDS011;26250;45.422;11.100;2022-11-24T14:09:44;34.55;;;27.85;;
40555;SDS011;26250;45.422;11.100;2022-11-24T14:12:19;38.55;;;29.33;;
40555;SDS011;26250;45.422;11.100;2022-11-24T14:14:49;34.08;;;27.90;;
40555;SDS011;26250;45.422;11.100;2022-11-24T14:17:18;31.45;;;27.58;;
40555;SDS011;26250;45.422;11.100;2022-11-24T14:22:25;43.13;;;29.25;;
40555;SDS011;26250;45.422;11.100;2022-11-24T14:25:00;36.43;;;26.87;;
40555;SDS011;26250;45.422;11.100;2022-11-24T14:27:34;41.92;;;28.13;;
40555;SDS011;26250;45.422;11.100;2022-11-24T14:32:38;35.05;;;28.08;;
40555;SDS011;26250;45.422;11.100;2022-11-24T14:35:23;33.85;;;28.17;;
40555;SDS011;26250;45.422;11.100;2022-11-24T14:37:54;34.00;;;28.35;;
40555;SDS011;26250;45.422;11.100;2022-11-24T14:40:37;38.25;;;26.13;;
40555;SDS011;26250;45.422;11.100;2022-11-24T14:43:31;39.92;;;27.45;;
40555;SDS011;26250;45.422;11.100;2022-11-24T14:45:59;37.08;;;28.40;;
40555;SDS011;26250;45.422;11.100;2022-11-24T14:48:30;29.33;;;25.17;;
40555;SDS011;26250;45.422;11.100;2022-11-24T14:53:33;33.67;;;28.45;;
40555;SDS011;26250;45.422;11.100;2022-11-24T14:56:35;32.08;;;26.15;;
40555;SDS011;26250;45.422;11.100;2022-11-24T14:58:55;34.88;;;27.48;;
40555;SDS011;26250;45.422;11.100;2022-11-24T15:07:14;34.47;;;26.88;;
40555;SDS011;26250;45.422;11.100;2022-11-24T15:09:48;37.50;;;25.65;;
40555;SDS011;26250;45.422;11.100;2022-11-24T15:15:03;34.80;;;27.63;;
40555;SDS011;26250;45.422;11.100;2022-11-24T15:17:31;37.53;;;28.33;;
40555;SDS011;26250;45.422;11.100;2022-11-24T15:20:02;50.42;;;29.42;;
40555;SDS011;26250;45.422;11.100;2022-11-24T15:22:41;44.08;;;28.85;;
40555;SDS011;26250;45.422;11.100;2022-11-24T15:25:30;42.63;;;29.95;;
40555;SDS011;26250;45.422;11.100;2022-11-24T15:27:59;44.30;;;28.23;;
40555;SDS011;26250;45.422;11.100;2022-11-24T15:30:27;36.10;;;27.00;;
40555;SDS011;26250;45.422;11.100;2022-11-24T15:32:56;34.38;;;25.90;;
40555;SDS011;26250;45.422;11.100;2022-11-24T15:35:25;40.35;;;26.90;;
40555;SDS011;26250;45.422;11.100;2022-11-24T15:37:54;36.70;;;27.60;;
40555;SDS011;26250;45.422;11.100;2022-11-24T15:40:21;33.47;;;27.13;;
40555;SDS011;26250;45.422;11.100;2022-11-24T15:42:53;39.10;;;27.00;;
40555;SDS011;26250;45.422;11.100;2022-11-24T15:45:21;29.97;;;25.13;;
40555;SDS011;26250;45.422;11.100;2022-11-24T15:47:51;32.15;;;27.63;;
40555;SDS011;26250;45.422;11.100;2022-11-24T15:50:18;46.22;;;30.75;;
40555;SDS011;26250;45.422;11.100;2022-11-24T15:52:48;39.78;;;27.95;;
40555;SDS011;26250;45.422;11.100;2022-11-24T15:55:18;34.58;;;28.42;;
40555;SDS011;26250;45.422;11.100;2022-11-24T15:57:47;28.02;;;25.20;;
40555;SDS011;26250;45.422;11.100;2022-11-24T16:00:15;39.10;;;28.60;;
40555;SDS011;26250;45.422;11.100;2022-11-24T16:02:44;33.83;;;28.48;;
40555;SDS011;26250;45.422;11.100;2022-11-24T16:05:12;31.83;;;28.27;;
40555;SDS011;26250;45.422;11.100;2022-11-24T16:07:39;56.97;;;30.92;;
40555;SDS011;26250;45.422;11.100;2022-11-24T16:10:21;37.67;;;28.95;;
40555;SDS011;26250;45.422;11.100;2022-11-24T16:12:57;34.45;;;30.23;;
40555;SDS011;26250;45.422;11.100;2022-11-24T16:15:24;58.00;;;31.17;;
40555;SDS011;26250;45.422;11.100;2022-11-24T16:17:51;41.33;;;31.20;;
40555;SDS011;26250;45.422;11.100;2022-11-24T16:20:18;40.85;;;30.83;;
40555;SDS011;26250;45.422;11.100;2022-11-24T16:22:45;41.88;;;31.67;;
40555;SDS011;26250;45.422;11.100;2022-11-24T16:25:12;37.50;;;31.52;;
40555;SDS011;26250;45.422;11.100;2022-11-24T16:27:40;38.63;;;31.83;;
40555;SDS011;26250;45.422;11.100;2022-11-24T16:30:07;40.17;;;34.13;;
40555;SDS011;26250;45.422;11.100;2022-11-24T16:32:37;40.20;;;35.70;;
40555;SDS011;26250;45.422;11.100;2022-11-24T16:35:04;40.95;;;33.28;;
40555;SDS011;26250;45.422;11.100;2022-11-24T16:37:31;35.72;;;29.58;;
40555;SDS011;26250;45.422;11.100;2022-11-24T16:39:58;38.10;;;32.03;;
40555;SDS011;26250;45.422;11.100;2022-11-24T16:42:28;48.55;;;32.33;;
40555;SDS011;26250;45.422;11.100;2022-11-24T16:44:55;34.67;;;30.15;;
40555;SDS011;26250;45.422;11.100;2022-11-24T16:47:22;37.15;;;31.25;;
40555;SDS011;26250;45.422;11.100;2022-11-24T16:49:49;47.20;;;38.22;;
40555;SDS011;26250;45.422;11.100;2022-11-24T16:52:16;41.30;;;35.88;;
40555;SDS011;26250;45.422;11.100;2022-11-24T16:54:46;49.35;;;35.80;;
40555;SDS011;26250;45.422;11.100;2022-11-24T16:57:13;44.47;;;33.03;;
40555;SDS011;26250;45.422;11.100;2022-11-24T16:59:41;49.60;;;33.03;;
40555;SDS011;26250;45.422;11.100;2022-11-24T17:02:10;44.15;;;33.60;;
40555;SDS011;26250;45.422;11.100;2022-11-24T17:04:38;34.50;;;30.90;;
40555;SDS011;26250;45.422;11.100;2022-11-24T17:07:05;38.53;;;31.13;;
40555;SDS011;26250;45.422;11.100;2022-11-24T17:09:33;32.80;;;29.38;;
40555;SDS011;26250;45.422;11.100;2022-11-24T17:12:06;37.25;;;31.77;;
40555;SDS011;26250;45.422;11.100;2022-11-24T17:14:33;45.30;;;34.28;;
40555;SDS011;26250;45.422;11.100;2022-11-24T17:17:00;37.00;;;33.10;;
40555;SDS011;26250;45.422;11.100;2022-11-24T17:19:28;36.70;;;32.97;;
40555;SDS011;26250;45.422;11.100;2022-11-24T17:21:57;43.28;;;34.38;;
40555;SDS011;26250;45.422;11.100;2022-11-24T17:24:27;40.40;;;36.10;;
40555;SDS011;26250;45.422;11.100;2022-11-24T17:26:54;50.92;;;33.80;;
40555;SDS011;26250;45.422;11.100;2022-11-24T17:29:23;39.30;;;29.13;;
40555;SDS011;26250;45.422;11.100;2022-11-24T17:31:51;33.80;;;27.95;;
40555;SDS011;26250;45.422;11.100;2022-11-24T17:34:17;31.95;;;28.52;;
40555;SDS011;26250;45.422;11.100;2022-11-24T17:36:45;37.70;;;27.17;;
40555;SDS011;26250;45.422;11.100;2022-11-24T17:39:12;33.63;;;28.92;;
40555;SDS011;26250;45.422;11.100;2022-11-24T17:41:39;35.28;;;31.52;;
40555;SDS011;26250;45.422;11.100;2022-11-24T17:44:06;40.58;;;32.00;;
40555;SDS011;26250;45.422;11.100;2022-11-24T17:46:33;39.30;;;32.40;;
40555;SDS011;26250;45.422;11.100;2022-11-24T17:49:02;34.47;;;29.67;;
40555;SDS011;26250;45.422;11.100;2022-11-24T17:51:31;41.67;;;31.85;;
40555;SDS011;26250;45.422;11.100;2022-11-24T17:53:58;38.42;;;32.78;;
40555;SDS011;26250;45.422;11.100;2022-11-24T17:56:31;36.95;;;31.70;;
40555;SDS011;26250;45.422;11.100;2022-11-24T17:58:58;37.17;;;33.28;;
40555;SDS011;26250;45.422;11.100;2022-11-24T18:01:26;40.15;;;32.38;;
40555;SDS011;26250;45.422;11.100;2022-11-24T18:03:56;39.75;;;31.70;;
40555;SDS011;26250;45.422;11.100;2022-11-24T18:06:24;37.05;;;31.83;;
40555;SDS011;26250;45.422;11.100;2022-11-24T18:08:51;40.35;;;36.10;;
40555;SDS011;26250;45.422;11.100;2022-11-24T18:11:23;38.03;;;33.53;;
40555;SDS011;26250;45.422;11.100;2022-11-24T18:13:57;36.00;;;31.38;;
40555;SDS011;26250;45.422;11.100;2022-11-24T18:16:28;38.13;;;32.85;;
40555;SDS011;26250;45.422;11.100;2022-11-24T18:18:57;45.70;;;35.00;;
40555;SDS011;26250;45.422;11.100;2022-11-24T18:21:35;45.08;;;36.17;;
40555;SDS011;26250;45.422;11.100;2022-11-24T18:24:10;41.67;;;36.53;;
40555;SDS011;26250;45.422;11.100;2022-11-24T18:26:38;54.25;;;41.55;;
40555;SDS011;26250;45.422;11.100;2022-11-24T18:29:07;57.55;;;41.40;;
40555;SDS011;26250;45.422;11.100;2022-11-24T18:31:35;49.85;;;41.47;;
40555;SDS011;26250;45.422;11.100;2022-11-24T18:34:04;55.72;;;42.13;;
40555;SDS011;26250;45.422;11.100;2022-11-24T18:36:32;44.15;;;36.58;;
40555;SDS011;26250;45.422;11.100;2022-11-24T18:39:00;43.38;;;30.85;;
40555;SDS011;26250;45.422;11.100;2022-11-24T18:41:28;39.88;;;30.20;;
40555;SDS011;26250;45.422;11.100;2022-11-24T18:43:55;42.97;;;31.77;;
40555;SDS011;26250;45.422;11.100;2022-11-24T18:46:25;41.13;;;32.15;;
40555;SDS011;26250;45.422;11.100;2022-11-24T18:48:52;36.88;;;31.10;;
40555;SDS011;26250;45.422;11.100;2022-11-24T18:51:20;56.53;;;29.80;;
40555;SDS011;26250;45.422;11.100;2022-11-24T18:53:49;39.88;;;29.83;;
40555;SDS011;26250;45.422;11.100;2022-11-24T18:56:23;37.80;;;32.55;;
40555;SDS011;26250;45.422;11.100;2022-11-24T18:58:51;35.30;;;28.15;;
40555;SDS011;26250;45.422;11.100;2022-11-24T19:01:23;37.55;;;28.88;;
40555;SDS011;26250;45.422;11.100;2022-11-24T19:03:55;40.60;;;28.67;;
40555;SDS011;26250;45.422;11.100;2022-11-24T19:06:24;37.00;;;32.92;;
40555;SDS011;26250;45.422;11.100;2022-11-24T19:08:57;35.20;;;31.65;;
40555;SDS011;26250;45.422;11.100;2022-11-24T19:11:29;34.80;;;31.15;;
40555;SDS011;26250;45.422;11.100;2022-11-24T19:13:59;37.97;;;31.02;;
40555;SDS011;26250;45.422;11.100;2022-11-24T19:16:27;47.08;;;35.10;;
40555;SDS011;26250;45.422;11.100;2022-11-24T19:18:55;41.45;;;31.77;;
40555;SDS011;26250;45.422;11.100;2022-11-24T19:21:25;52.42;;;36.17;;
40555;SDS011;26250;45.422;11.100;2022-11-24T19:23:52;39.03;;;33.42;;
40555;SDS011;26250;45.422;11.100;2022-11-24T19:26:25;37.92;;;33.17;;
40555;SDS011;26250;45.422;11.100;2022-11-24T19:28:51;34.90;;;31.15;;
40555;SDS011;26250;45.422;11.100;2022-11-24T19:31:18;38.17;;;30.08;;
40555;SDS011;26250;45.422;11.100;2022-11-24T19:33:45;33.28;;;28.95;;
40555;SDS011;26250;45.422;11.100;2022-11-24T19:36:14;39.03;;;25.48;;
40555;SDS011;26250;45.422;11.100;2022-11-24T19:38:50;29.90;;;24.42;;
40555;SDS011;26250;45.422;11.100;2022-11-24T19:41:19;30.90;;;25.42;;
40555;SDS011;26250;45.422;11.100;2022-11-24T19:43:47;37.80;;;27.20;;
40555;SDS011;26250;45.422;11.100;2022-11-24T19:46:16;40.78;;;27.33;;
40555;SDS011;26250;45.422;11.100;2022-11-24T19:48:45;39.92;;;28.00;;
40555;SDS011;26250;45.422;11.100;2022-11-24T19:51:16;33.00;;;25.52;;
40555;SDS011;26250;45.422;11.100;2022-11-24T19:53:44;39.38;;;27.83;;
40555;SDS011;26250;45.422;11.100;2022-11-24T19:56:13;50.90;;;26.45;;
40555;SDS011;26250;45.422;11.100;2022-11-24T19:58:42;30.88;;;25.27;;
40555;SDS011;26250;45.422;11.100;2022-11-24T20:01:10;34.10;;;26.52;;
40555;SDS011;26250;45.422;11.100;2022-11-24T20:03:41;29.30;;;26.20;;
40555;SDS011;26250;45.422;11.100;2022-11-24T20:06:10;32.85;;;29.48;;
40555;SDS011;26250;45.422;11.100;2022-11-24T20:08:38;40.78;;;32.15;;
40555;SDS011;26250;45.422;11.100;2022-11-24T20:13:34;45.53;;;34.72;;
40555;SDS011;26250;45.422;11.100;2022-11-24T20:18:30;74.07;;;54.83;;
40555;SDS011;26250;45.422;11.100;2022-11-24T20:21:04;64.20;;;52.22;;
40555;SDS011;26250;45.422;11.100;2022-11-24T20:23:43;65.68;;;43.28;;
40555;SDS011;26250;45.422;11.100;2022-11-24T20:26:15;43.63;;;35.80;;
40555;SDS011;26250;45.422;11.100;2022-11-24T20:28:45;37.67;;;33.65;;
40555;SDS011;26250;45.422;11.100;2022-11-24T20:31:16;35.33;;;31.75;;
40555;SDS011;26250;45.422;11.100;2022-11-24T20:33:45;44.13;;;32.28;;
40555;SDS011;26250;45.422;11.100;2022-11-24T20:36:13;43.58;;;37.67;;
40555;SDS011;26250;45.422;11.100;2022-11-24T20:38:42;36.85;;;32.45;;
40555;SDS011;26250;45.422;11.100;2022-11-24T20:41:11;44.53;;;34.65;;
40555;SDS011;26250;45.422;11.100;2022-11-24T20:43:39;39.13;;;34.72;;
40555;SDS011;26250;45.422;11.100;2022-11-24T20:46:11;36.70;;;32.75;;
40555;SDS011;26250;45.422;11.100;2022-11-24T20:48:40;33.72;;;30.23;;
40555;SDS011;26250;45.422;11.100;2022-11-24T20:51:08;32.60;;;27.27;;
40555;SDS011;26250;45.422;11.100;2022-11-24T20:53:37;26.58;;;23.88;;
40555;SDS011;26250;45.422;11.100;2022-11-24T20:56:09;28.02;;;25.08;;
40555;SDS011;26250;45.422;11.100;2022-11-24T20:58:38;42.95;;;31.55;;
40555;SDS011;26250;45.422;11.100;2022-11-24T21:01:09;34.45;;;30.42;;
40555;SDS011;26250;45.422;11.100;2022-11-24T21:03:38;33.17;;;28.50;;
40555;SDS011;26250;45.422;11.100;2022-11-24T21:06:08;37.78;;;30.65;;
40555;SDS011;26250;45.422;11.100;2022-11-24T21:08:37;24.52;;;21.83;;
40555;SDS011;26250;45.422;11.100;2022-11-24T21:11:06;39.80;;;26.92;;
40555;SDS011;26250;45.422;11.100;2022-11-24T21:13:35;31.63;;;27.98;;
40555;SDS011;26250;45.422;11.100;2022-11-24T21:16:14;34.22;;;30.67;;
40555;SDS011;26250;45.422;11.100;2022-11-24T21:18:53;37.15;;;32.10;;
40555;SDS011;26250;45.422;11.100;2022-11-24T21:21:23;48.60;;;35.97;;
40555;SDS011;26250;45.422;11.100;2022-11-24T21:23:50;45.97;;;37.90;;
40555;SDS011;26250;45.422;11.100;2022-11-24T21:26:17;40.35;;;36.22;;
40555;SDS011;26250;45.422;11.100;2022-11-24T21:28:45;44.80;;;38.30;;
40555;SDS011;26250;45.422;11.100;2022-11-24T21:31:14;48.58;;;38.03;;
40555;SDS011;26250;45.422;11.100;2022-11-24T21:33:52;46.65;;;37.75;;
40555;SDS011;26250;45.422;11.100;2022-11-24T21:36:20;39.90;;;32.70;;
40555;SDS011;26250;45.422;11.100;2022-11-24T21:38:52;52.78;;;34.50;;
40555;SDS011;26250;45.422;11.100;2022-11-24T21:41:21;35.70;;;29.48;;
40555;SDS011;26250;45.422;11.100;2022-11-24T21:43:52;34.42;;;28.70;;
40555;SDS011;26250;45.422;11.100;2022-11-24T21:46:26;41.45;;;28.73;;
40555;SDS011;26250;45.422;11.100;2022-11-24T21:48:54;36.67;;;28.85;;
40555;SDS011;26250;45.422;11.100;2022-11-24T21:51:21;41.10;;;34.42;;
40555;SDS011;26250;45.422;11.100;2022-11-24T21:53:47;40.30;;;35.88;;
40555;SDS011;26250;45.422;11.100;2022-11-24T21:56:15;41.38;;;33.05;;
40555;SDS011;26250;45.422;11.100;2022-11-24T22:01:12;39.63;;;33.88;;
